Time;durP1;ratioP1;P1;durP2;ratioP2;P2;SDS_P1;SDS_P2;PMS_P1;PMS_P2;Temp;Humidity;BMP_temperature;BMP_pressure;BME280_temperature;BME280_humidity;BME280_pressure;Samples;Min_cycle;Max_cycle;Signal;HPM_P1;HPM_P2
2024/01/23 00:01:44;;;;;;;;;;;8.50;99.90;;;;;;5068833;28;19913;-74
2024/01/23 00:04:10;;;;;;;;;;;8.60;99.90;;;;;;5070257;28;19908;-74
2024/01/23 00:06:36;;;;;;;;;;;8.50;99.90;;;;;;5070375;28;19953;-74
2024/01/23 00:09:02;;;;;;;;;;;8.50;99.90;;;;;;5070399;28;19909;-75
2024/01/23 00:11:29;;;;;;;;;;;8.60;99.90;;;;;;5070401;28;20037;-74
2024/01/23 00:13:55;;;;;;;;;;;8.50;99.90;;;;;;5070255;28;19916;-75
2024/01/23 00:16:20;;;;;;;;;;;8.50;99.90;;;;;;5070085;28;20265;-75
2024/01/23 00:18:46;;;;;;;;;;;8.50;99.90;;;;;;5070589;28;19912;-75
2024/01/23 00:21:12;;;;;;;;;;;8.50;99.90;;;;;;5070345;28;19908;-76
2024/01/23 00:23:38;;;;;;;;;;;8.40;99.90;;;;;;5070456;28;19978;-73
2024/01/23 00:26:04;;;;;;;;;;;8.40;99.90;;;;;;5070178;28;20284;-74
2024/01/23 00:28:30;;;;;;;;;;;8.40;99.90;;;;;;5069876;28;19908;-72
2024/01/23 00:30:55;;;;;;;;;;;8.40;99.90;;;;;;5070147;28;19908;-74
2024/01/23 00:33:21;;;;;;;;;;;8.30;99.90;;;;;;5071835;28;20443;-72
2024/01/23 00:35:47;;;;;;;;;;;8.30;99.90;;;;;;5073035;28;19908;-74
2024/01/23 00:38:13;;;;;;;;;;;8.30;99.90;;;;;;5070451;28;19909;-73
2024/01/23 00:40:38;;;;;;;;;;;8.30;99.90;;;;;;5051573;28;19927;-73
2024/01/23 00:43:04;;;;;;;;;;;8.30;99.90;;;;;;5070092;28;19954;-74
2024/01/23 00:45:30;;;;;;;;;;;8.30;99.90;;;;;;5069860;28;19955;-74
2024/01/23 00:47:56;;;;;;;;;;;8.30;99.90;;;;;;5051781;28;19966;-74
2024/01/23 00:50:22;;;;;;;;;;;8.30;99.90;;;;;;5070187;28;19935;-74
2024/01/23 00:52:47;;;;;;;;;;;8.40;99.90;;;;;;5069867;28;19919;-74
2024/01/23 00:55:13;;;;;;;;;;;8.30;99.90;;;;;;5069853;28;20031;-74
2024/01/23 00:57:39;;;;;;;;;;;8.20;99.90;;;;;;5070000;28;19916;-74
2024/01/23 01:00:08;;;;;;;;;;;8.20;99.90;;;;;;5051521;28;19909;-74
2024/01/23 01:02:35;;;;;;;;;;;8.40;99.90;;;;;;5069841;28;20376;-74
2024/01/23 01:05:00;;;;;;;;;;;8.20;99.90;;;;;;5069748;28;19915;-74
2024/01/23 01:07:26;;;;;;;;;;;8.20;99.90;;;;;;5069508;28;19935;-74
2024/01/23 01:09:52;;;;;;;;;;;8.10;99.90;;;;;;5069832;28;19920;-74
2024/01/23 01:12:18;;;;;;;;;;;8.10;99.90;;;;;;5069536;28;20377;-74
2024/01/23 01:14:44;;;;;;;;;;;8.00;99.90;;;;;;5069459;28;19917;-75
2024/01/23 01:17:11;;;;;;;;;;;8.00;99.90;;;;;;5053876;28;19909;-75
2024/01/23 01:19:37;;;;;;;;;;;8.00;99.90;;;;;;5072273;28;19922;-74
2024/01/23 01:22:05;;;;;;;;;;;8.00;99.90;;;;;;5073167;28;19973;-74
2024/01/23 01:24:31;;;;;;;;;;;8.00;99.90;;;;;;5072979;28;19955;-75
2024/01/23 01:26:57;;;;;;;;;;;8.00;99.90;;;;;;5073121;28;19909;-75
2024/01/23 01:29:23;;;;;;;;;;;8.00;99.90;;;;;;5072808;28;19932;-75
2024/01/23 01:31:51;;;;;;;;;;;8.00;99.90;;;;;;5072900;28;19909;-73
2024/01/23 01:34:17;;;;;;;;;;;8.10;99.90;;;;;;5072979;28;20352;-76
2024/01/23 01:36:43;;;;;;;;;;;8.10;99.90;;;;;;5073067;28;19939;-74
2024/01/23 01:39:12;;;;;;;;;;;8.10;99.90;;;;;;5073090;28;19908;-75
2024/01/23 01:41:37;;;;;;;;;;;8.10;99.90;;;;;;5072755;28;20372;-75
2024/01/23 01:44:03;;;;;;;;;;;8.10;99.90;;;;;;5072986;28;19909;-75
2024/01/23 01:46:31;;;;;;;;;;;8.10;99.90;;;;;;5072856;28;19912;-76
2024/01/23 01:48:57;;;;;;;;;;;8.10;99.90;;;;;;5072680;28;19991;-74
2024/01/23 01:51:25;;;;;;;;;;;8.00;99.90;;;;;;5072685;28;20359;-74
2024/01/23 01:53:51;;;;;;;;;;;8.00;99.90;;;;;;5072541;28;20040;-75
2024/01/23 01:56:19;;;;;;;;;;;8.00;99.90;;;;;;5072403;28;19955;-74
2024/01/23 01:58:45;;;;;;;;;;;8.10;99.90;;;;;;5072457;28;20047;-74
2024/01/23 02:01:12;;;;;;;;;;;8.10;99.90;;;;;;5072448;28;20045;-73
2024/01/23 02:03:37;;;;;;;;;;;8.10;99.90;;;;;;5054633;28;19908;-75
2024/01/23 02:06:04;;;;;;;;;;;8.10;99.90;;;;;;5072331;28;20356;-75
2024/01/23 02:08:30;;;;;;;;;;;8.10;99.90;;;;;;5072346;28;19983;-74
2024/01/23 02:10:56;;;;;;;;;;;8.10;99.90;;;;;;5072150;28;19991;-74
2024/01/23 02:13:24;;;;;;;;;;;8.10;99.90;;;;;;5072027;28;20348;-74
2024/01/23 02:15:50;;;;;;;;;;;8.10;99.90;;;;;;5072020;28;20371;-75
2024/01/23 02:18:16;;;;;;;;;;;8.10;99.90;;;;;;5072143;28;19920;-75
2024/01/23 02:20:42;;;;;;;;;;;8.00;99.90;;;;;;5072079;28;19959;-75
2024/01/23 02:23:14;;;;;;;;;;;8.00;99.90;;;;;;5071923;28;19927;-75
2024/01/23 02:25:41;;;;;;;;;;;7.90;99.90;;;;;;5071891;28;20261;-74
2024/01/23 02:28:07;;;;;;;;;;;7.90;99.90;;;;;;5071049;28;20279;-75
2024/01/23 02:30:34;;;;;;;;;;;7.90;99.90;;;;;;5071660;28;19909;-74
2024/01/23 02:33:06;;;;;;;;;;;7.90;99.90;;;;;;5071768;28;20394;-73
2024/01/23 02:35:32;;;;;;;;;;;7.90;99.90;;;;;;5071885;28;19963;-75
2024/01/23 02:37:58;;;;;;;;;;;8.00;99.90;;;;;;5071706;28;19944;-75
2024/01/23 02:40:24;;;;;;;;;;;8.00;99.90;;;;;;5071431;28;19940;-73
2024/01/23 02:42:50;;;;;;;;;;;8.00;99.90;;;;;;5071687;28;19928;-74
2024/01/23 02:45:16;;;;;;;;;;;8.00;99.90;;;;;;5071341;28;19908;-75
2024/01/23 02:47:41;;;;;;;;;;;8.00;99.90;;;;;;5071532;28;20003;-75
2024/01/23 02:50:08;;;;;;;;;;;8.00;99.90;;;;;;5071189;28;19909;-75
2024/01/23 02:52:34;;;;;;;;;;;8.00;99.90;;;;;;5071377;28;19941;-73
2024/01/23 02:55:00;;;;;;;;;;;7.90;99.90;;;;;;5071179;28;19912;-75
2024/01/23 02:57:26;;;;;;;;;;;8.00;99.90;;;;;;5071143;28;19935;-75
2024/01/23 02:59:55;;;;;;;;;;;8.00;99.90;;;;;;5071098;28;19912;-74
2024/01/23 03:02:21;;;;;;;;;;;8.00;99.90;;;;;;5071189;28;19909;-74
2024/01/23 03:04:47;;;;;;;;;;;8.00;99.90;;;;;;5071186;28;19931;-75
2024/01/23 03:07:13;;;;;;;;;;;8.00;99.90;;;;;;5071186;28;19908;-75
2024/01/23 03:09:40;;;;;;;;;;;8.00;99.90;;;;;;5070925;28;19908;-75
2024/01/23 03:12:19;;;;;;;;;;;8.00;99.90;;;;;;5071195;28;19915;-75
2024/01/23 03:14:45;;;;;;;;;;;8.10;99.90;;;;;;5070765;28;19983;-75
2024/01/23 03:17:11;;;;;;;;;;;8.10;99.90;;;;;;5070871;28;19938;-75
2024/01/23 03:19:38;;;;;;;;;;;8.10;99.90;;;;;;5070845;28;19919;-75
2024/01/23 03:22:04;;;;;;;;;;;8.10;99.90;;;;;;5070589;28;19999;-74
2024/01/23 03:24:31;;;;;;;;;;;8.00;99.90;;;;;;5070775;28;19935;-75
2024/01/23 03:26:57;;;;;;;;;;;8.00;99.90;;;;;;5070729;28;19991;-75
2024/01/23 03:29:26;;;;;;;;;;;8.00;99.90;;;;;;5070553;28;20021;-76
2024/01/23 03:31:52;;;;;;;;;;;8.10;99.90;;;;;;5070809;28;19913;-75
2024/01/23 03:34:19;;;;;;;;;;;8.10;99.90;;;;;;5070706;28;19928;-75
2024/01/23 03:36:45;;;;;;;;;;;8.10;99.90;;;;;;5070633;28;19908;-75
2024/01/23 03:39:11;;;;;;;;;;;8.20;99.90;;;;;;5070343;28;20007;-76
2024/01/23 03:41:37;;;;;;;;;;;8.30;99.90;;;;;;5071295;28;20440;-75
2024/01/23 03:44:06;;;;;;;;;;;8.20;99.90;;;;;;5074141;28;19962;-75
2024/01/23 03:46:32;;;;;;;;;;;8.30;99.90;;;;;;5052313;28;20274;-75
2024/01/23 03:48:57;;;;;;;;;;;8.30;99.90;;;;;;5070662;28;20357;-76
2024/01/23 03:51:23;;;;;;;;;;;8.20;99.90;;;;;;5070838;28;19916;-75
2024/01/23 03:53:49;;;;;;;;;;;8.10;99.90;;;;;;5070584;28;19953;-76
2024/01/23 03:56:15;;;;;;;;;;;8.20;99.90;;;;;;5070822;28;19909;-76
2024/01/23 03:58:41;;;;;;;;;;;8.20;99.90;;;;;;5070992;28;20232;-75
2024/01/23 04:01:07;;;;;;;;;;;8.00;99.90;;;;;;5071068;28;20314;-75
2024/01/23 04:03:33;;;;;;;;;;;8.00;99.90;;;;;;5071014;28;19919;-75
2024/01/23 04:05:58;;;;;;;;;;;8.00;99.90;;;;;;5071014;28;19916;-75
2024/01/23 04:08:24;;;;;;;;;;;8.00;99.90;;;;;;5070895;28;20289;-73
2024/01/23 04:10:50;;;;;;;;;;;7.80;99.90;;;;;;5071279;28;19909;-75
2024/01/23 04:13:16;;;;;;;;;;;7.90;99.90;;;;;;5071220;28;20265;-75
2024/01/23 04:15:41;;;;;;;;;;;7.80;99.90;;;;;;5070813;28;19941;-75
2024/01/23 04:18:07;;;;;;;;;;;7.80;99.90;;;;;;5070520;28;20075;-74
2024/01/23 04:20:33;;;;;;;;;;;7.80;99.90;;;;;;5070007;28;19935;-74
2024/01/23 04:23:00;;;;;;;;;;;7.90;99.90;;;;;;5070613;28;20328;-72
2024/01/23 04:25:27;;;;;;;;;;;7.90;99.90;;;;;;5053672;28;19926;-76
2024/01/23 04:27:53;;;;;;;;;;;8.00;99.90;;;;;;5071329;28;20394;-73
2024/01/23 04:30:19;;;;;;;;;;;8.00;99.90;;;;;;5070929;28;19909;-74
2024/01/23 04:32:45;;;;;;;;;;;8.10;99.90;;;;;;5071174;28;19909;-74
2024/01/23 04:35:12;;;;;;;;;;;8.10;99.90;;;;;;5071278;28;19966;-76
2024/01/23 04:37:38;;;;;;;;;;;8.20;99.90;;;;;;5071258;28;20356;-69
2024/01/23 04:40:07;;;;;;;;;;;8.20;99.90;;;;;;5071042;28;19915;-74
2024/01/23 04:42:33;;;;;;;;;;;8.20;99.90;;;;;;5071045;28;20317;-73
2024/01/23 04:44:59;;;;;;;;;;;8.20;99.90;;;;;;5070883;28;19952;-74
2024/01/23 04:47:25;;;;;;;;;;;8.20;99.90;;;;;;5071011;28;19999;-74
2024/01/23 04:49:51;;;;;;;;;;;8.20;99.90;;;;;;5071158;28;20379;-74
2024/01/23 04:52:18;;;;;;;;;;;8.30;99.90;;;;;;5074156;28;20004;-76
2024/01/23 04:54:45;;;;;;;;;;;8.30;99.90;;;;;;5075507;28;20024;-74
2024/01/23 04:57:14;;;;;;;;;;;8.30;99.90;;;;;;5057228;28;20023;-74
2024/01/23 04:59:40;;;;;;;;;;;8.30;99.90;;;;;;5075019;28;20431;-74
2024/01/23 05:02:06;;;;;;;;;;;8.30;99.90;;;;;;5057149;28;19909;-74
2024/01/23 05:04:34;;;;;;;;;;;8.30;99.90;;;;;;5075183;28;20244;-74
2024/01/23 05:06:59;;;;;;;;;;;8.20;99.90;;;;;;5075243;28;20352;-74
2024/01/23 05:09:29;;;;;;;;;;;8.00;99.90;;;;;;5075186;28;19935;-74
2024/01/23 05:11:55;;;;;;;;;;;8.00;99.90;;;;;;5075099;28;19944;-74
2024/01/23 05:14:21;;;;;;;;;;;8.00;99.90;;;;;;5074733;28;20017;-73
2024/01/23 05:16:46;;;;;;;;;;;8.00;99.90;;;;;;5075277;28;20437;-74
2024/01/23 05:19:12;;;;;;;;;;;8.10;99.90;;;;;;5076038;28;19931;-74
2024/01/23 05:21:38;;;;;;;;;;;8.20;99.90;;;;;;5076060;28;19908;-74
2024/01/23 05:24:04;;;;;;;;;;;8.20;99.90;;;;;;5075995;28;19909;-74
2024/01/23 05:26:30;;;;;;;;;;;8.20;99.90;;;;;;5075838;28;20253;-74
2024/01/23 05:28:56;;;;;;;;;;;8.20;99.90;;;;;;5077258;28;19909;-75
2024/01/23 05:31:22;;;;;;;;;;;8.20;99.90;;;;;;5096096;28;20356;-73
2024/01/23 05:33:47;;;;;;;;;;;8.20;99.90;;;;;;5093713;28;19923;-74
2024/01/23 05:36:13;;;;;;;;;;;8.20;99.90;;;;;;5075636;28;20039;-74
2024/01/23 05:38:39;;;;;;;;;;;8.30;99.90;;;;;;5075692;28;19908;-74
2024/01/23 05:41:05;;;;;;;;;;;8.30;99.90;;;;;;5075458;28;19921;-75
2024/01/23 05:43:31;;;;;;;;;;;8.40;99.90;;;;;;5075716;28;20049;-77
2024/01/23 05:45:57;;;;;;;;;;;8.30;99.90;;;;;;5075320;28;19915;-78
2024/01/23 05:48:23;;;;;;;;;;;8.20;99.90;;;;;;5075677;28;19912;-78
2024/01/23 05:50:48;;;;;;;;;;;8.10;99.90;;;;;;5075480;28;19915;-78
2024/01/23 05:53:14;;;;;;;;;;;8.10;99.90;;;;;;5075501;28;19917;-76
2024/01/23 05:55:40;;;;;;;;;;;8.00;99.90;;;;;;5075248;28;20369;-74
2024/01/23 05:58:06;;;;;;;;;;;8.00;99.90;;;;;;5075420;28;19999;-76
2024/01/23 06:00:32;;;;;;;;;;;7.90;99.90;;;;;;5075159;28;20108;-76
2024/01/23 06:02:58;;;;;;;;;;;7.90;99.90;;;;;;5074935;28;20360;-76
2024/01/23 06:05:24;;;;;;;;;;;7.80;99.90;;;;;;5075006;28;19908;-76
2024/01/23 06:07:50;;;;;;;;;;;7.70;99.90;;;;;;5075027;28;19915;-76
2024/01/23 06:10:17;;;;;;;;;;;7.70;99.90;;;;;;5074842;28;20280;-75
2024/01/23 06:12:43;;;;;;;;;;;7.60;99.90;;;;;;5074871;28;19916;-75
2024/01/23 06:15:10;;;;;;;;;;;7.70;99.90;;;;;;5074360;28;20106;-74
2024/01/23 06:17:36;;;;;;;;;;;7.70;99.90;;;;;;5074668;28;20363;-76
2024/01/23 06:20:07;;;;;;;;;;;7.80;99.90;;;;;;5074760;28;19912;-75
2024/01/23 06:22:33;;;;;;;;;;;7.90;99.90;;;;;;5074724;28;20021;-75
2024/01/23 06:25:06;;;;;;;;;;;7.90;99.90;;;;;;5074298;28;19909;-75
2024/01/23 06:27:31;;;;;;;;;;;7.80;99.90;;;;;;5074335;28;19908;-76
2024/01/23 06:29:57;;;;;;;;;;;7.80;99.90;;;;;;5055252;28;20289;-76
2024/01/23 06:32:24;;;;;;;;;;;7.80;99.90;;;;;;5055305;28;20287;-76
2024/01/23 06:34:51;;;;;;;;;;;7.90;99.90;;;;;;5076297;28;19924;-75
2024/01/23 06:37:17;;;;;;;;;;;7.90;99.90;;;;;;5075643;28;19948;-73
2024/01/23 06:39:42;;;;;;;;;;;8.20;99.90;;;;;;5073036;28;20336;-75
2024/01/23 06:42:08;;;;;;;;;;;8.40;99.90;;;;;;5072481;28;19972;-75
2024/01/23 06:44:34;;;;;;;;;;;8.40;99.90;;;;;;5072515;28;19908;-71
2024/01/23 06:47:36;;;;;;;;;;;8.40;99.90;;;;;;5072454;28;19962;-71
2024/01/23 06:50:02;;;;;;;;;;;8.50;99.90;;;;;;5071992;28;19932;-75
2024/01/23 06:52:28;;;;;;;;;;;8.40;99.90;;;;;;5072582;28;20321;-76
2024/01/23 06:54:53;;;;;;;;;;;8.40;99.90;;;;;;5071894;28;19916;-75
2024/01/23 06:57:19;;;;;;;;;;;8.40;99.90;;;;;;5071950;28;20022;-75
2024/01/23 06:59:45;;;;;;;;;;;8.60;99.90;;;;;;5072274;28;19916;-76
2024/01/23 07:02:11;;;;;;;;;;;8.70;99.90;;;;;;5071722;28;19995;-77
2024/01/23 07:04:37;;;;;;;;;;;9.00;99.90;;;;;;5072240;28;19912;-76
2024/01/23 07:07:03;;;;;;;;;;;9.30;99.90;;;;;;5072020;28;20134;-75
2024/01/23 07:09:28;;;;;;;;;;;9.60;99.90;;;;;;5071770;28;20340;-76
2024/01/23 07:11:55;;;;;;;;;;;10.40;99.90;;;;;;5072336;28;19917;-76
2024/01/23 07:14:21;;;;;;;;;;;11.30;99.90;;;;;;5071205;28;19926;-74
2024/01/23 07:16:47;;;;;;;;;;;12.30;99.90;;;;;;5072179;28;19991;-75
2024/01/23 07:19:13;;;;;;;;;;;12.90;99.90;;;;;;5072167;28;19912;-73
2024/01/23 07:21:40;;;;;;;;;;;13.70;99.90;;;;;;5072430;28;19938;-73
2024/01/23 07:24:10;;;;;;;;;;;14.60;99.90;;;;;;5072511;28;19908;-76
2024/01/23 07:26:36;;;;;;;;;;;14.30;99.90;;;;;;5072589;28;19984;-73
2024/01/23 07:29:04;;;;;;;;;;;14.10;99.90;;;;;;5071963;28;19954;-73
2024/01/23 07:31:30;;;;;;;;;;;13.80;99.90;;;;;;5071932;28;19909;-73
2024/01/23 07:33:56;;;;;;;;;;;13.70;99.90;;;;;;5071826;28;19917;-72
2024/01/23 07:36:22;;;;;;;;;;;14.20;99.90;;;;;;5072193;28;19985;-75
2024/01/23 07:38:48;;;;;;;;;;;14.50;99.90;;;;;;5071639;28;19909;-73
2024/01/23 07:41:13;;;;;;;;;;;15.00;99.90;;;;;;5071544;28;20285;-73
2024/01/23 07:43:39;;;;;;;;;;;15.00;99.90;;;;;;5071624;28;19909;-73
2024/01/23 07:46:06;;;;;;;;;;;14.80;99.90;;;;;;5071274;28;19916;-71
2024/01/23 07:48:31;;;;;;;;;;;14.60;99.90;;;;;;5053593;28;19910;-73
2024/01/23 07:50:57;;;;;;;;;;;15.10;99.90;;;;;;5071674;28;19931;-73
2024/01/23 07:53:23;;;;;;;;;;;15.40;99.90;;;;;;5072221;28;19920;-74
2024/01/23 07:55:50;;;;;;;;;;;15.30;99.90;;;;;;5072182;28;19909;-74
2024/01/23 07:58:16;;;;;;;;;;;15.40;99.90;;;;;;5072105;28;19957;-74
2024/01/23 08:00:42;;;;;;;;;;;15.10;99.90;;;;;;5072549;28;20052;-74
2024/01/23 08:03:08;;;;;;;;;;;15.00;99.90;;;;;;5072425;28;20051;-74
2024/01/23 08:05:34;;;;;;;;;;;14.60;99.90;;;;;;5054440;28;20253;-73
2024/01/23 08:08:00;;;;;;;;;;;14.40;99.90;;;;;;5071327;28;20451;-73
2024/01/23 08:10:26;;;;;;;;;;;14.30;99.90;;;;;;5053369;28;19909;-73
2024/01/23 08:12:53;;;;;;;;;;;14.30;99.90;;;;;;5071332;28;19908;-73
2024/01/23 08:15:19;;;;;;;;;;;14.40;99.90;;;;;;5052953;28;19920;-75
2024/01/23 08:17:45;;;;;;;;;;;14.30;99.90;;;;;;5071264;28;19909;-71
2024/01/23 08:20:11;;;;;;;;;;;14.20;99.90;;;;;;5071204;28;19999;-73
2024/01/23 08:22:38;;;;;;;;;;;13.80;99.90;;;;;;5071413;28;19909;-73
2024/01/23 08:25:04;;;;;;;;;;;14.10;99.90;;;;;;5072074;28;19948;-71
2024/01/23 08:27:30;;;;;;;;;;;14.20;99.90;;;;;;5074755;28;19951;-73
2024/01/23 08:29:56;;;;;;;;;;;14.00;99.90;;;;;;5074540;28;19951;-74
2024/01/23 08:32:22;;;;;;;;;;;14.00;99.90;;;;;;5075101;28;20289;-73
2024/01/23 08:34:49;;;;;;;;;;;14.00;99.90;;;;;;5074809;28;19935;-73
2024/01/23 08:37:15;;;;;;;;;;;14.00;99.90;;;;;;5074933;28;19998;-72
2024/01/23 08:39:42;;;;;;;;;;;14.10;99.90;;;;;;5075364;28;19951;-75
2024/01/23 08:42:08;;;;;;;;;;;14.20;99.90;;;;;;5074483;28;19921;-73
2024/01/23 08:44:35;;;;;;;;;;;14.10;99.90;;;;;;5074676;28;19962;-73
2024/01/23 08:47:02;;;;;;;;;;;14.20;99.90;;;;;;5074711;28;19909;-73
2024/01/23 08:49:27;;;;;;;;;;;14.40;99.90;;;;;;5074846;28;19908;-74
2024/01/23 08:51:53;;;;;;;;;;;14.60;99.90;;;;;;5074788;28;19913;-73
2024/01/23 08:54:19;;;;;;;;;;;14.60;99.90;;;;;;5061699;28;20336;-72
2024/01/23 08:56:46;;;;;;;;;;;14.90;99.90;;;;;;5074267;28;19919;-71
2024/01/23 08:59:15;;;;;;;;;;;15.00;99.90;;;;;;5073316;28;20019;-73
2024/01/23 09:01:41;;;;;;;;;;;15.10;99.90;;;;;;5074474;28;19948;-73
2024/01/23 09:04:07;;;;;;;;;;;15.10;99.90;;;;;;5074526;28;19915;-73
2024/01/23 09:06:33;;;;;;;;;;;15.10;99.90;;;;;;5074256;28;19935;-71
2024/01/23 09:08:59;;;;;;;;;;;15.10;99.90;;;;;;5074314;28;19962;-72
2024/01/23 09:11:25;;;;;;;;;;;15.00;99.90;;;;;;5072537;28;20368;-73
2024/01/23 09:13:51;;;;;;;;;;;14.90;99.90;;;;;;5072655;28;19989;-72
2024/01/23 09:16:17;;;;;;;;;;;14.90;99.90;;;;;;5074036;28;19948;-73
2024/01/23 09:18:48;;;;;;;;;;;14.90;99.90;;;;;;5074171;28;19966;-74
2024/01/23 09:21:17;;;;;;;;;;;14.80;99.90;;;;;;5074381;28;19935;-74
2024/01/23 09:23:43;;;;;;;;;;;14.70;99.90;;;;;;5074342;28;19935;-71
2024/01/23 09:26:10;;;;;;;;;;;14.60;99.90;;;;;;5074321;28;20325;-73
2024/01/23 09:28:36;;;;;;;;;;;14.50;99.90;;;;;;5074290;28;19951;-73
2024/01/23 09:31:02;;;;;;;;;;;14.40;99.90;;;;;;5073963;28;20359;-73
2024/01/23 09:33:28;;;;;;;;;;;14.30;99.90;;;;;;5073748;28;19917;-74
2024/01/23 09:35:54;;;;;;;;;;;14.30;99.90;;;;;;5073998;28;19988;-74
2024/01/23 09:38:21;;;;;;;;;;;14.30;99.90;;;;;;5073563;28;20253;-73
2024/01/23 09:40:48;;;;;;;;;;;14.20;99.90;;;;;;5073060;28;19924;-74
2024/01/23 09:43:16;;;;;;;;;;;14.20;99.90;;;;;;5073271;28;20007;-73
2024/01/23 09:45:43;;;;;;;;;;;14.30;99.90;;;;;;5073067;28;19909;-74
2024/01/23 09:48:09;;;;;;;;;;;14.30;99.90;;;;;;5073033;28;19955;-72
2024/01/23 09:50:36;;;;;;;;;;;14.40;99.90;;;;;;5072785;28;19980;-74
2024/01/23 09:53:02;;;;;;;;;;;14.40;99.90;;;;;;5073007;28;19973;-74
2024/01/23 09:55:27;;;;;;;;;;;14.50;99.90;;;;;;5073467;28;19959;-74
2024/01/23 09:57:58;;;;;;;;;;;14.50;99.90;;;;;;5073352;28;19920;-73
2024/01/23 10:00:23;;;;;;;;;;;14.70;99.90;;;;;;5073202;28;20403;-72
2024/01/23 10:02:49;;;;;;;;;;;14.80;99.90;;;;;;5073250;28;20043;-74
2024/01/23 10:05:16;;;;;;;;;;;14.70;99.90;;;;;;5073188;28;19909;-74
2024/01/23 10:07:42;;;;;;;;;;;14.60;99.90;;;;;;5055237;28;20404;-73
2024/01/23 10:10:15;;;;;;;;;;;14.30;99.90;;;;;;5072223;28;19923;-71
2024/01/23 10:12:45;;;;;;;;;;;14.40;99.90;;;;;;5072737;28;20364;-73
2024/01/23 10:15:11;;;;;;;;;;;14.20;99.90;;;;;;5072957;28;20332;-74
2024/01/23 10:17:38;;;;;;;;;;;14.10;99.90;;;;;;5073039;28;19912;-74
2024/01/23 10:20:05;;;;;;;;;;;14.20;99.90;;;;;;5063510;28;19999;-74
2024/01/23 10:22:30;;;;;;;;;;;14.40;99.90;;;;;;5072584;28;20320;-74
2024/01/23 10:25:01;;;;;;;;;;;14.70;99.90;;;;;;5072419;28;19952;-73
2024/01/23 10:27:29;;;;;;;;;;;15.10;99.90;;;;;;5072754;28;19908;-74
2024/01/23 10:29:54;;;;;;;;;;;15.40;99.90;;;;;;5072280;28;19935;-73
2024/01/23 10:32:23;;;;;;;;;;;15.50;99.90;;;;;;5072438;28;19909;-73
2024/01/23 10:34:54;;;;;;;;;;;15.50;99.90;;;;;;5072213;28;20112;-74
2024/01/23 10:37:21;;;;;;;;;;;15.60;99.90;;;;;;5072500;28;19926;-74
2024/01/23 10:39:51;;;;;;;;;;;15.60;99.90;;;;;;5072582;28;20360;-69
2024/01/23 10:42:20;;;;;;;;;;;15.80;99.90;;;;;;5072295;28;19921;-73
2024/01/23 10:44:49;;;;;;;;;;;16.20;99.90;;;;;;5072196;28;19987;-73
2024/01/23 10:47:16;;;;;;;;;;;16.30;99.90;;;;;;5072283;28;19961;-73
2024/01/23 10:49:45;;;;;;;;;;;16.60;99.90;;;;;;5071278;28;19955;-72
2024/01/23 10:52:34;;;;;;;;;;;16.30;99.90;;;;;;5072303;28;19962;-73
2024/01/23 10:55:03;;;;;;;;;;;16.10;99.90;;;;;;5071061;28;19966;-74
2024/01/23 10:57:31;;;;;;;;;;;16.00;99.90;;;;;;5072281;28;20325;-73
2024/01/23 11:00:01;;;;;;;;;;;15.90;99.90;;;;;;5053647;28;20027;-73
2024/01/23 11:02:42;;;;;;;;;;;16.00;99.90;;;;;;5072046;28;20049;-73
2024/01/23 11:05:09;;;;;;;;;;;16.10;99.90;;;;;;5072217;28;19982;-75
2024/01/23 11:07:43;;;;;;;;;;;16.20;99.90;;;;;;5072204;28;19938;-73
2024/01/23 11:10:24;;;;;;;;;;;16.30;99.90;;;;;;5088618;27;19938;-70
2024/01/23 11:13:10;;;;;;;;;;;16.40;99.90;;;;;;5088371;28;19973;-73
2024/01/23 11:15:36;;;;;;;;;;;16.50;99.90;;;;;;5088344;28;19952;-73
2024/01/23 11:18:20;;;;;;;;;;;16.50;99.90;;;;;;5089337;28;20229;-74
2024/01/23 11:23:32;;;;;;;;;;;16.00;99.90;;;;;;5089470;28;19909;-74
2024/01/23 11:26:03;;;;;;;;;;;15.70;99.90;;;;;;5089487;28;20365;-72
2024/01/23 11:28:32;;;;;;;;;;;15.40;99.90;;;;;;5087655;28;20376;-73
2024/01/23 11:31:14;;;;;;;;;;;15.30;99.90;;;;;;5089136;28;20145;-73
2024/01/23 11:33:40;;;;;;;;;;;15.20;99.90;;;;;;5089018;28;19915;-73
2024/01/23 11:36:10;;;;;;;;;;;15.40;99.90;;;;;;5088754;28;19913;-73
2024/01/23 11:38:43;;;;;;;;;;;15.50;99.90;;;;;;5088979;28;19961;-74
2024/01/23 11:41:13;;;;;;;;;;;15.80;99.90;;;;;;5087362;28;19912;-71
2024/01/23 11:43:40;;;;;;;;;;;16.10;99.90;;;;;;5088760;28;19958;-73
2024/01/23 11:46:10;;;;;;;;;;;16.60;99.90;;;;;;5088625;28;19940;-74
2024/01/23 11:48:36;;;;;;;;;;;16.70;99.90;;;;;;5088626;28;19923;-73
2024/01/23 11:51:03;;;;;;;;;;;17.00;99.90;;;;;;5088061;28;19908;-73
2024/01/23 11:53:29;;;;;;;;;;;16.60;99.90;;;;;;5088494;28;19908;-73
2024/01/23 11:55:55;;;;;;;;;;;16.30;99.90;;;;;;5088289;28;19958;-74
2024/01/23 11:58:21;;;;;;;;;;;16.20;99.90;;;;;;5088080;28;20042;-74
2024/01/23 12:00:48;;;;;;;;;;;16.40;99.90;;;;;;5088117;28;19916;-74
2024/01/23 12:03:20;;;;;;;;;;;16.60;99.90;;;;;;5087794;28;19908;-75
2024/01/23 12:05:47;;;;;;;;;;;16.70;99.90;;;;;;5089263;28;19930;-73
2024/01/23 12:08:12;;;;;;;;;;;17.10;99.90;;;;;;5090439;28;19953;-75
2024/01/23 12:10:38;;;;;;;;;;;17.40;99.90;;;;;;5074731;28;20026;-76
2024/01/23 12:13:04;;;;;;;;;;;17.60;99.90;;;;;;5065716;28;19909;-77
2024/01/23 12:15:30;;;;;;;;;;;17.80;99.90;;;;;;5073206;28;20007;-73
2024/01/23 12:17:56;;;;;;;;;;;17.50;99.90;;;;;;5079458;28;19919;-77
2024/01/23 12:20:23;;;;;;;;;;;17.30;99.90;;;;;;5081962;28;19909;-76
2024/01/23 12:22:49;;;;;;;;;;;17.20;99.90;;;;;;5073187;28;19913;-75
2024/01/23 12:25:15;;;;;;;;;;;17.40;99.90;;;;;;5074860;28;19908;-76
2024/01/23 12:27:44;;;;;;;;;;;16.90;99.90;;;;;;5074920;28;19920;-76
2024/01/23 12:30:14;;;;;;;;;;;16.70;99.90;;;;;;5074762;28;20323;-75
2024/01/23 12:32:40;;;;;;;;;;;16.70;99.90;;;;;;5074920;28;20000;-76
2024/01/23 12:35:10;;;;;;;;;;;16.40;99.90;;;;;;5074687;28;19913;-75
2024/01/23 12:37:38;;;;;;;;;;;16.40;99.90;;;;;;5074659;28;19974;-76
2024/01/23 12:40:09;;;;;;;;;;;16.40;99.90;;;;;;5074927;28;19913;-77
2024/01/23 12:42:41;;;;;;;;;;;16.30;99.90;;;;;;5075056;28;19986;-77
2024/01/23 12:45:18;;;;;;;;;;;16.20;99.90;;;;;;5074862;28;19915;-77
2024/01/23 12:47:44;;;;;;;;;;;16.30;99.90;;;;;;5074381;28;20376;-76
2024/01/23 12:50:21;;;;;;;;;;;16.40;99.90;;;;;;5074188;28;19997;-75
2024/01/23 12:52:47;;;;;;;;;;;16.50;99.90;;;;;;5073991;28;20007;-77
2024/01/23 12:55:14;;;;;;;;;;;16.70;99.90;;;;;;5074492;28;19916;-76
2024/01/23 12:57:40;;;;;;;;;;;16.70;99.90;;;;;;5074334;28;19908;-76
2024/01/23 13:00:06;;;;;;;;;;;16.70;99.90;;;;;;5074050;28;20356;-76
2024/01/23 13:02:32;;;;;;;;;;;16.80;99.90;;;;;;5072862;28;20375;-76
2024/01/23 13:04:58;;;;;;;;;;;16.90;99.90;;;;;;5074106;28;19908;-76
2024/01/23 13:07:24;;;;;;;;;;;16.80;99.90;;;;;;5074156;28;19908;-76
2024/01/23 13:09:50;;;;;;;;;;;16.70;99.90;;;;;;5074112;28;19924;-74
2024/01/23 13:12:16;;;;;;;;;;;16.70;99.90;;;;;;5074450;28;19913;-76
2024/01/23 13:14:45;;;;;;;;;;;16.60;99.90;;;;;;5074372;28;19954;-76
2024/01/23 13:17:11;;;;;;;;;;;16.40;99.90;;;;;;5074414;28;20348;-76
2024/01/23 13:19:37;;;;;;;;;;;16.30;99.90;;;;;;5074683;28;19943;-76
2024/01/23 13:22:06;;;;;;;;;;;16.30;99.90;;;;;;5074592;28;19909;-76
2024/01/23 13:24:32;;;;;;;;;;;16.30;99.90;;;;;;5074377;28;20372;-76
2024/01/23 13:27:04;;;;;;;;;;;16.00;99.90;;;;;;5074488;28;19908;-76
2024/01/23 13:29:29;;;;;;;;;;;15.80;99.90;;;;;;5075580;28;19916;-75
2024/01/23 13:31:55;;;;;;;;;;;15.50;99.90;;;;;;5074736;28;20046;-76
2024/01/23 13:34:21;;;;;;;;;;;15.50;99.90;;;;;;5072937;28;20292;-77
2024/01/23 13:36:47;;;;;;;;;;;15.40;99.90;;;;;;5074266;28;19927;-76
2024/01/23 13:39:18;;;;;;;;;;;15.50;99.90;;;;;;5072705;28;20002;-76
2024/01/23 13:41:45;;;;;;;;;;;15.60;99.90;;;;;;5074095;28;19996;-76
2024/01/23 13:44:12;;;;;;;;;;;15.80;99.90;;;;;;5074035;28;20352;-75
2024/01/23 13:46:39;;;;;;;;;;;15.90;99.90;;;;;;5073595;28;19944;-75
2024/01/23 13:49:05;;;;;;;;;;;15.90;99.90;;;;;;5073338;28;19917;-75
2024/01/23 13:51:30;;;;;;;;;;;16.00;99.90;;;;;;5073535;28;19962;-75
2024/01/23 13:53:56;;;;;;;;;;;15.80;99.90;;;;;;5067855;28;19921;-73
2024/01/23 13:56:23;;;;;;;;;;;15.50;99.90;;;;;;5053498;28;19917;-76
2024/01/23 13:58:49;;;;;;;;;;;15.50;99.90;;;;;;5064725;28;19916;-75
2024/01/23 14:01:17;;;;;;;;;;;15.30;99.90;;;;;;5053260;28;20448;-75
2024/01/23 14:03:44;;;;;;;;;;;15.20;99.90;;;;;;5053195;28;19915;-76
2024/01/23 14:06:09;;;;;;;;;;;15.40;99.90;;;;;;5052988;28;20436;-73
2024/01/23 14:08:40;;;;;;;;;;;15.40;99.90;;;;;;5052769;28;20007;-76
2024/01/23 14:11:06;;;;;;;;;;;15.40;99.90;;;;;;5052978;28;19924;-74
2024/01/23 14:13:32;;;;;;;;;;;15.30;99.90;;;;;;5053196;28;20379;-75
2024/01/23 14:15:58;;;;;;;;;;;15.20;99.90;;;;;;5068519;28;20013;-76
2024/01/23 14:18:24;;;;;;;;;;;15.20;99.90;;;;;;5073291;28;20361;-76
2024/01/23 14:20:51;;;;;;;;;;;15.20;99.90;;;;;;5073225;28;19909;-76
2024/01/23 14:23:17;;;;;;;;;;;15.20;99.90;;;;;;5073290;28;19913;-77
2024/01/23 14:25:43;;;;;;;;;;;15.10;99.90;;;;;;5073345;28;19912;-77